Time;durP1;ratioP1;P1;durP2;ratioP2;P2;SDS_P1;SDS_P2;PMS_P1;PMS_P2;Temp;Humidity;BMP_temperature;BMP_pressure;BME280_temperature;BME280_humidity;BME280_pressure;Samples;Min_cycle;Max_cycle;Signal;HPM_P1;HPM_P2
2023/10/14 00:00:35;;;;;;;4.50;2.87;;;;;;;19.45;73.35;99530.63;5043053;28;20864;-68
2023/10/14 00:03:20;;;;;;;5.57;2.83;;;;;;;19.47;73.90;99533.88;5045115;28;20443;-68
2023/10/14 00:05:49;;;;;;;4.47;2.47;;;;;;;19.69;73.71;99549.00;5041427;28;20532;-69
2023/10/14 00:08:19;;;;;;;4.13;2.40;;;;;;;19.52;76.23;99536.56;5039231;28;20424;-70
2023/10/14 00:10:48;;;;;;;8.30;3.03;;;;;;;19.27;77.79;99531.34;5048996;28;20480;-67
2023/10/14 00:13:17;;;;;;;5.47;2.63;;;;;;;19.27;79.52;99522.31;5047503;28;21053;-69
2023/10/14 00:15:46;;;;;;;4.10;2.93;;;;;;;19.14;81.11;99523.00;5049254;28;20424;-69
2023/10/14 00:18:18;;;;;;;6.53;2.63;;;;;;;19.08;79.71;99511.28;5044723;28;20515;-69
2023/10/14 00:20:47;;;;;;;6.73;2.53;;;;;;;18.95;79.52;99510.06;5049281;28;20444;-68
2023/10/14 00:23:15;;;;;;;5.47;2.20;;;;;;;18.95;79.01;99503.75;5051121;28;20545;-70
2023/10/14 00:25:46;;;;;;;5.63;3.13;;;;;;;19.06;78.78;99516.25;5052406;28;20787;-69
2023/10/14 00:28:19;;;;;;;7.90;2.97;;;;;;;18.95;79.14;99506.50;5039761;28;20515;-70
2023/10/14 00:30:48;;;;;;;4.10;2.90;;;;;;;19.02;78.32;99509.72;5044329;28;20793;-68
2023/10/14 00:33:20;;;;;;;4.70;2.13;;;;;;;18.98;77.50;99494.94;5037387;28;20554;-69
2023/10/14 00:35:54;;;;;;;4.43;2.73;;;;;;;19.10;77.58;99492.63;5047081;28;20424;-69
2023/10/14 00:38:23;;;;;;;5.70;2.20;;;;;;;19.28;75.10;99485.53;5045827;28;20408;-69
2023/10/14 00:40:54;;;;;;;3.10;2.70;;;;;;;19.34;75.13;99492.59;5043459;28;20817;-69
2023/10/14 00:43:22;;;;;;;4.63;3.10;;;;;;;19.26;74.78;99488.59;5052777;28;20454;-70
2023/10/14 00:45:52;;;;;;;4.90;2.73;;;;;;;19.52;74.02;99489.09;5052150;28;20951;-69
2023/10/14 00:48:27;;;;;;;2.03;1.73;;;;;;;19.49;73.03;99471.31;5050201;28;20847;-69
2023/10/14 00:50:59;;;;;;;6.73;2.37;;;;;;;19.43;73.42;99474.38;5050532;28;20507;-68
2023/10/14 00:53:29;;;;;;;3.80;3.00;;;;;;;19.49;73.44;99467.75;5052119;28;20499;-68
2023/10/14 00:56:02;;;;;;;5.67;2.43;;;;;;;19.51;72.81;99476.50;5049396;28;20431;-69
2023/10/14 00:58:39;;;;;;;3.30;1.87;;;;;;;19.52;72.42;99473.47;5049822;28;20632;-69
2023/10/14 01:01:08;;;;;;;6.27;2.27;;;;;;;19.53;73.80;99466.88;5045926;28;20458;-68
2023/10/14 01:03:37;;;;;;;4.87;2.37;;;;;;;19.50;72.80;99456.50;5054316;28;20441;-68
2023/10/14 01:06:19;;;;;;;4.20;2.53;;;;;;;19.47;74.80;99454.31;5046820;28;20499;-68
2023/10/14 01:08:52;;;;;;;4.20;1.90;;;;;;;19.37;75.30;99461.84;5041938;28;20439;-68
2023/10/14 01:11:24;;;;;;;3.20;1.97;;;;;;;19.36;74.56;99455.56;5062009;28;20534;-69
2023/10/14 01:14:00;;;;;;;5.40;1.77;;;;;;;19.42;74.46;99448.06;5048831;28;20481;-67
2023/10/14 01:16:31;;;;;;;6.03;2.10;;;;;;;19.38;74.99;99444.28;5050645;28;20415;-69
2023/10/14 01:19:02;;;;;;;5.83;2.23;;;;;;;19.39;74.68;99437.69;5057586;28;20465;-69
2023/10/14 01:21:31;;;;;;;4.50;2.30;;;;;;;19.29;75.25;99426.84;5051358;28;20463;-67
2023/10/14 01:24:02;;;;;;;3.70;2.93;;;;;;;19.24;76.15;99415.94;5054965;28;20417;-69
2023/10/14 01:26:33;;;;;;;2.60;2.00;;;;;;;19.38;75.63;99411.38;5051508;28;20481;-67
2023/10/14 01:29:06;;;;;;;4.10;2.10;;;;;;;19.28;77.36;99403.28;5056832;28;20424;-67
2023/10/14 01:32:05;;;;;;;5.10;2.50;;;;;;;19.22;76.83;99394.28;5052023;28;21071;-69
2023/10/14 01:34:42;;;;;;;3.47;2.60;;;;;;;19.18;77.61;99373.25;5047150;28;20439;-69
2023/10/14 01:37:18;;;;;;;3.57;1.90;;;;;;;19.22;77.49;99366.88;5043894;28;20494;-68
2023/10/14 01:39:56;;;;;;;2.87;2.40;;;;;;;19.16;77.76;99340.66;5043929;28;20952;-68
2023/10/14 01:42:29;;;;;;;8.40;3.20;;;;;;;19.18;78.35;99354.88;5047338;28;20485;-68
2023/10/14 01:44:59;;;;;;;2.77;2.20;;;;;;;19.07;79.00;99343.22;5052806;28;20443;-68
2023/10/14 01:47:30;;;;;;;4.90;1.97;;;;;;;19.12;79.75;99350.59;5051225;28;20442;-68
2023/10/14 01:50:00;;;;;;;7.53;2.00;;;;;;;19.05;79.62;99355.63;5045716;28;20449;-68
2023/10/14 01:52:31;;;;;;;7.00;3.87;;;;;;;19.05;80.80;99355.63;5047542;28;20446;-69
2023/10/14 01:55:02;;;;;;;4.93;2.13;;;;;;;18.94;82.12;99356.84;5045879;28;20450;-68
2023/10/14 01:57:31;;;;;;;4.07;2.47;;;;;;;18.96;82.17;99360.13;5048611;28;20450;-69
2023/10/14 02:00:00;;;;;;;5.93;2.63;;;;;;;18.94;82.79;99352.19;5044660;28;20454;-68
2023/10/14 02:02:48;;;;;;;2.70;2.10;;;;;;;18.83;83.90;99336.19;5056464;28;20420;-67
2023/10/14 02:05:17;;;;;;;4.73;1.93;;;;;;;18.76;84.18;99325.56;5043980;28;20960;-68
2023/10/14 02:07:46;;;;;;;2.83;1.90;;;;;;;18.73;84.24;99319.88;5049238;28;20492;-68
2023/10/14 02:10:17;;;;;;;5.03;1.77;;;;;;;18.74;84.88;99310.50;5045968;28;20793;-68
2023/10/14 02:12:45;;;;;;;5.80;2.90;;;;;;;18.69;85.65;99303.19;5046913;28;20472;-69
2023/10/14 02:15:15;;;;;;;5.63;1.80;;;;;;;18.61;86.43;99306.59;5052615;28;20865;-69
2023/10/14 02:17:46;;;;;;;2.93;2.07;;;;;;;18.47;88.19;99295.50;5049686;28;20963;-67
2023/10/14 02:20:27;;;;;;;4.40;2.80;;;;;;;18.38;88.94;99291.78;5049579;28;20469;-68
2023/10/14 02:22:57;;;;;;;9.80;2.27;;;;;;;18.39;89.69;99281.63;5050573;28;20478;-69
2023/10/14 02:25:30;;;;;;;2.70;2.30;;;;;;;18.33;89.67;99283.63;5053932;28;20401;-68
2023/10/14 02:27:59;;;;;;;3.00;1.80;;;;;;;18.34;90.25;99296.19;5049818;28;20409;-68
2023/10/14 02:30:32;;;;;;;2.20;1.60;;;;;;;18.39;88.34;99298.88;5035864;28;20457;-67
2023/10/14 02:33:01;;;;;;;3.37;2.07;;;;;;;18.26;89.62;99302.31;5065776;28;20507;-68
2023/10/14 02:35:33;;;;;;;2.40;1.50;;;;;;;18.35;88.97;99297.81;5049411;28;20528;-68
2023/10/14 02:38:04;;;;;;;2.73;1.73;;;;;;;18.31;88.79;99296.78;5045147;28;20467;-66
2023/10/14 02:40:37;;;;;;;4.37;2.10;;;;;;;18.27;88.88;99295.72;5042084;28;20445;-69
2023/10/14 02:43:06;;;;;;;4.10;1.97;;;;;;;18.23;88.70;99295.50;5046971;28;20997;-69
2023/10/14 02:45:38;;;;;;;3.50;2.07;;;;;;;18.28;88.01;99286.41;5048152;28;20454;-68
2023/10/14 02:48:11;;;;;;;2.97;2.60;;;;;;;18.25;88.07;99282.31;5048791;28;20446;-69
2023/10/14 02:50:50;;;;;;;3.27;2.40;;;;;;;18.28;88.38;99285.59;5053878;28;20528;-67
2023/10/14 02:53:27;;;;;;;3.60;2.40;;;;;;;18.30;87.77;99277.91;5048997;28;20459;-68
2023/10/14 02:56:04;;;;;;;2.70;2.40;;;;;;;18.39;86.76;99276.16;5048310;28;20428;-67
2023/10/14 02:58:33;;;;;;;2.77;2.17;;;;;;;18.37;86.72;99268.22;5047590;28;20467;-68
2023/10/14 03:01:05;;;;;;;3.80;2.47;;;;;;;18.24;86.83;99263.47;5042241;28;20473;-69
2023/10/14 03:03:34;;;;;;;3.37;2.50;;;;;;;18.47;85.06;99275.50;5042031;28;20544;-68
2023/10/14 03:06:06;;;;;;;3.40;1.50;;;;;;;18.48;84.52;99268.91;5046393;28;20568;-67
2023/10/14 03:08:35;;;;;;;3.30;2.23;;;;;;;18.49;83.65;99259.59;5044993;28;20428;-69
2023/10/14 03:11:16;;;;;;;2.50;2.03;;;;;;;18.50;83.14;99272.97;5045345;28;20769;-69
2023/10/14 03:13:45;;;;;;;6.23;2.87;;;;;;;18.66;81.75;99255.28;5046892;28;20432;-68
2023/10/14 03:16:18;;;;;;;2.60;1.50;;;;;;;18.84;80.33;99269.28;5049515;28;20810;-68
2023/10/14 03:18:47;;;;;;;5.40;2.47;;;;;;;18.97;78.49;99260.34;5043489;28;20405;-69
2023/10/14 03:21:31;;;;;;;5.63;2.30;;;;;;;19.15;76.14;99256.78;5055272;28;20957;-68
2023/10/14 03:24:00;;;;;;;4.53;2.20;;;;;;;19.31;75.22;99269.13;5048347;28;20453;-68
2023/10/14 03:26:32;;;;;;;2.67;2.10;;;;;;;19.35;74.77;99267.44;5056025;28;20460;-68
2023/10/14 03:29:05;;;;;;;3.07;2.43;;;;;;;19.44;73.71;99270.31;5049016;28;20438;-69
2023/10/14 03:31:35;;;;;;;5.23;2.83;;;;;;;19.53;73.01;99255.63;5048616;28;20523;-68
2023/10/14 03:34:09;;;;;;;5.17;2.77;;;;;;;19.61;72.16;99253.28;5038536;28;20406;-69
2023/10/14 03:36:42;;;;;;;8.07;2.03;;;;;;;19.65;72.19;99259.81;5050727;28;20427;-68
2023/10/14 03:39:21;;;;;;;4.50;2.47;;;;;;;19.64;71.83;99249.97;5046340;28;20398;-69
2023/10/14 03:41:53;;;;;;;2.90;2.40;;;;;;;19.71;71.48;99247.63;5049845;28;20558;-66
2023/10/14 03:44:23;;;;;;;4.03;2.87;;;;;;;19.78;71.43;99248.88;5046233;28;20401;-68
2023/10/14 03:47:00;;;;;;;6.90;3.20;;;;;;;19.83;71.17;99232.31;5052458;28;20461;-68
2023/10/14 03:49:32;;;;;;;8.90;1.90;;;;;;;19.79;71.25;99238.72;5049248;28;20443;-70
2023/10/14 03:52:01;;;;;;;4.63;2.67;;;;;;;19.67;72.04;99230.13;5049796;28;20979;-69
2023/10/14 03:54:39;;;;;;;3.93;2.20;;;;;;;19.80;71.75;99235.66;5048257;28;20398;-69
2023/10/14 03:57:16;;;;;;;6.90;3.27;;;;;;;19.93;70.67;99228.56;5065269;28;20414;-69
2023/10/14 03:59:46;;;;;;;4.80;3.00;;;;;;;19.77;71.77;99224.47;5053918;28;20941;-69
2023/10/14 04:02:19;;;;;;;4.57;2.33;;;;;;;19.69;72.60;99208.72;5053134;28;20441;-67
2023/10/14 04:04:48;;;;;;;5.53;3.10;;;;;;;19.70;71.81;99202.13;5052407;28;20431;-69
2023/10/14 04:07:28;;;;;;;7.10;3.10;;;;;;;19.64;72.68;99198.66;5054334;28;20849;-68
2023/10/14 04:10:04;;;;;;;3.30;3.00;;;;;;;19.74;71.42;99214.09;5055181;28;20442;-68
2023/10/14 04:12:39;;;;;;;6.87;3.90;;;;;;;19.69;71.24;99208.72;5053569;28;20570;-69
2023/10/14 04:15:34;;;;;;;3.93;2.80;;;;;;;19.79;71.14;99194.81;5044318;28;20444;-67
2023/10/14 04:18:12;;;;;;;7.27;2.73;;;;;;;19.71;71.37;99195.47;5046648;28;20402;-67
2023/10/14 04:20:46;;;;;;;2.37;1.73;;;;;;;19.77;70.92;99205.25;5051105;28;20446;-68
2023/10/14 04:23:28;;;;;;;6.00;2.43;;;;;;;19.93;70.52;99198.38;5056288;28;20468;-69
2023/10/14 04:26:11;;;;;;;4.50;3.00;;;;;;;20.06;69.31;99188.50;5047349;28;20453;-67
2023/10/14 04:28:53;;;;;;;7.73;2.50;;;;;;;20.07;69.29;99190.13;5047113;28;20562;-69
2023/10/14 04:31:38;;;;;;;5.30;2.90;;;;;;;20.13;68.56;99180.69;5057475;28;20436;-68
2023/10/14 04:34:08;;;;;;;4.37;3.20;;;;;;;20.18;68.59;99180.56;5047141;28;20464;-68
2023/10/14 04:36:39;;;;;;;9.03;2.30;;;;;;;20.11;69.49;99170.00;5054905;28;20466;-68
2023/10/14 04:39:14;;;;;;;4.17;2.30;;;;;;;20.21;68.29;99180.75;5041742;28;20401;-69
2023/10/14 04:41:55;;;;;;;4.00;2.50;;;;;;;20.26;67.82;99194.38;5056269;28;20440;-69
2023/10/14 04:44:37;;;;;;;3.57;2.97;;;;;;;20.23;68.00;99199.69;5053405;28;20414;-68
2023/10/14 04:47:05;;;;;;;4.73;2.47;;;;;;;20.26;67.94;99197.13;5045221;28;20434;-68
2023/10/14 04:49:37;;;;;;;4.87;2.23;;;;;;;20.27;69.01;99198.78;5051279;28;20405;-68
2023/10/14 04:52:08;;;;;;;5.30;3.00;;;;;;;20.27;69.23;99218.00;5046646;28;20517;-68
2023/10/14 04:54:51;;;;;;;6.20;2.50;;;;;;;20.21;71.20;99243.13;5056866;28;20872;-67
2023/10/14 04:57:21;;;;;;;2.93;2.50;;;;;;;19.93;73.65;99267.00;5043419;28;20442;-68
2023/10/14 04:59:53;;;;;;;6.43;2.73;;;;;;;19.74;76.83;99290.94;5060854;28;20511;-68
2023/10/14 05:02:24;;;;;;;8.83;2.90;;;;;;;18.94;90.64;99321.22;5052510;28;20429;-70
2023/10/14 05:04:54;;;;;;;3.83;2.10;;;;;;;17.96;100.00;99311.63;5053208;28;20454;-68
2023/10/14 05:07:28;;;;;;;6.23;2.93;;;;;;;17.37;100.00;99328.28;5048767;28;20476;-69
2023/10/14 05:09:57;;;;;;;4.60;1.90;;;;;;;17.11;100.00;99332.25;5053436;28;20827;-67
2023/10/14 05:12:26;;;;;;;9.17;3.03;;;;;;;16.93;100.00;99342.75;5052568;28;20452;-70
2023/10/14 05:14:57;;;;;;;4.60;3.00;;;;;;;16.85;100.00;99356.16;5056460;28;20426;-67
2023/10/14 05:17:27;;;;;;;6.20;2.70;;;;;;;16.76;100.00;99371.50;5056065;28;20423;-69
2023/10/14 05:19:59;;;;;;;5.90;2.50;;;;;;;16.68;100.00;99383.84;5053030;28;20450;-67
2023/10/14 05:22:41;;;;;;;4.30;2.10;;;;;;;16.58;100.00;99388.47;5044564;28;20863;-69
2023/10/14 05:25:16;;;;;;;2.17;1.77;;;;;;;16.48;100.00;99394.78;5056101;28;21104;-68
2023/10/14 05:27:55;;;;;;;2.00;1.77;;;;;;;16.39;100.00;99391.81;5059816;28;20515;-68
2023/10/14 05:30:33;;;;;;;6.93;1.80;;;;;;;16.39;100.00;99390.97;5052161;28;20808;-70
2023/10/14 05:33:07;;;;;;;4.90;2.27;;;;;;;16.33;100.00;99408.47;5050911;28;20447;-68
2023/10/14 05:35:40;;;;;;;2.40;1.70;;;;;;;16.30;100.00;99431.69;5054716;28;20774;-69
2023/10/14 05:38:14;;;;;;;3.87;2.23;;;;;;;16.22;100.00;99439.56;5053678;28;20957;-69
2023/10/14 05:40:43;;;;;;;2.47;0.90;;;;;;;15.81;100.00;99466.03;5052583;28;20455;-68
2023/10/14 05:43:12;;;;;;;2.47;1.13;;;;;;;15.52;100.00;99463.00;5045513;28;20472;-69
2023/10/14 05:45:45;;;;;;;1.00;0.60;;;;;;;15.15;100.00;99480.25;5050626;28;20514;-70
2023/10/14 05:48:15;;;;;;;1.40;0.90;;;;;;;14.80;100.00;99496.44;5053442;28;20569;-68
2023/10/14 05:50:44;;;;;;;1.37;0.60;;;;;;;14.51;100.00;99478.84;5043145;28;20475;-67
2023/10/14 05:53:16;;;;;;;0.97;0.60;;;;;;;14.29;100.00;99468.84;5055503;28;20430;-69
2023/10/14 05:55:47;;;;;;;1.20;0.77;;;;;;;14.24;100.00;99506.06;5049233;28;20428;-69
2023/10/14 05:58:15;;;;;;;0.90;0.50;;;;;;;14.19;100.00;99542.22;5051846;28;20394;-66
2023/10/14 06:00:46;;;;;;;1.30;0.53;;;;;;;14.09;100.00;99572.03;5048121;28;20814;-69
2023/10/14 06:03:17;;;;;;;0.97;0.50;;;;;;;14.05;100.00;99591.84;5039469;28;20475;-68
2023/10/14 06:05:45;;;;;;;0.90;0.50;;;;;;;14.03;100.00;99611.16;5049093;28;20441;-67
2023/10/14 06:08:17;;;;;;;1.07;0.60;;;;;;;13.96;100.00;99617.88;5049497;28;20438;-70
2023/10/14 06:10:46;;;;;;;0.80;0.53;;;;;;;13.70;100.00;99625.72;5049620;28;20429;-67
2023/10/14 06:13:16;;;;;;;0.80;0.40;;;;;;;13.62;100.00;99630.78;5048553;28;20762;-70
2023/10/14 06:15:47;;;;;;;1.30;0.57;;;;;;;13.60;100.00;99635.66;5047786;28;20968;-68
2023/10/14 06:18:16;;;;;;;1.50;0.83;;;;;;;13.55;100.00;99655.44;5046083;28;20420;-67
2023/10/14 06:20:46;;;;;;;3.30;0.70;;;;;;;13.58;100.00;99673.13;5052536;28;20500;-67
2023/10/14 06:23:15;;;;;;;1.43;0.60;;;;;;;13.47;100.00;99683.03;5041927;28;21008;-68
2023/10/14 06:25:45;;;;;;;0.90;0.50;;;;;;;13.33;100.00;99695.34;5049715;28;20464;-69
2023/10/14 06:28:14;;;;;;;1.00;0.50;;;;;;;13.39;100.00;99700.59;5049244;28;20463;-68
2023/10/14 06:30:44;;;;;;;1.97;1.17;;;;;;;13.40;100.00;99706.88;5052436;28;20436;-68
2023/10/14 06:33:14;;;;;;;1.33;0.70;;;;;;;13.43;100.00;99723.47;5046876;28;20500;-69
2023/10/14 06:35:43;;;;;;;1.20;0.80;;;;;;;13.46;100.00;99728.41;5055875;28;20410;-67
2023/10/14 06:38:17;;;;;;;1.00;0.60;;;;;;;13.46;100.00;99722.16;5044489;28;20473;-68
2023/10/14 06:40:52;;;;;;;1.40;0.70;;;;;;;13.49;100.00;99725.22;5045404;28;20898;-67
2023/10/14 06:43:25;;;;;;;0.80;0.50;;;;;;;13.55;100.00;99731.56;5049345;28;20935;-68
2023/10/14 06:45:57;;;;;;;1.20;0.50;;;;;;;13.48;100.00;99742.59;5045673;28;20415;-69
2023/10/14 06:48:30;;;;;;;2.40;0.90;;;;;;;13.57;100.00;99742.16;5045479;28;20470;-68
2023/10/14 06:50:59;;;;;;;1.67;0.50;;;;;;;13.57;100.00;99740.25;5048890;28;20405;-69
2023/10/14 06:53:29;;;;;;;1.63;1.13;;;;;;;13.63;100.00;99746.59;5044287;28;21156;-68
2023/10/14 06:56:00;;;;;;;1.87;0.60;;;;;;;13.76;100.00;99754.38;5043295;28;20414;-68
2023/10/14 06:58:32;;;;;;;0.90;0.60;;;;;;;13.77;100.00;99784.06;5048371;28;20412;-68
2023/10/14 07:01:03;;;;;;;0.83;0.53;;;;;;;13.70;100.00;99780.69;5047174;28;20904;-70
2023/10/14 07:03:33;;;;;;;2.63;0.77;;;;;;;13.61;100.00;99800.38;5050139;28;20840;-68
2023/10/14 07:06:04;;;;;;;2.30;0.67;;;;;;;13.63;100.00;99800.97;5045010;28;20414;-69
2023/10/14 07:08:34;;;;;;;0.80;0.50;;;;;;;13.53;100.00;99803.53;5043530;28;20483;-69
2023/10/14 07:11:06;;;;;;;0.90;0.50;;;;;;;13.57;100.00;99810.94;5046854;28;21152;-69
2023/10/14 07:13:38;;;;;;;0.90;0.67;;;;;;;13.68;100.00;99803.75;5043762;28;20477;-69
2023/10/14 07:16:07;;;;;;;1.30;0.83;;;;;;;13.73;100.00;99798.41;5053050;28;20397;-69
2023/10/14 07:18:38;;;;;;;1.30;0.60;;;;;;;13.82;100.00;99799.63;5053602;28;20401;-67
2023/10/14 07:21:12;;;;;;;1.00;0.60;;;;;;;13.82;100.00;99799.63;5049891;28;20430;-68
2023/10/14 07:23:42;;;;;;;1.57;0.90;;;;;;;13.78;100.00;99801.19;5045124;28;20442;-69
2023/10/14 07:26:11;;;;;;;1.30;0.70;;;;;;;13.81;100.00;99797.97;5049708;28;20413;-65
2023/10/14 07:28:43;;;;;;;3.73;1.07;;;;;;;13.85;100.00;99797.22;5046119;28;20440;-69
2023/10/14 07:31:14;;;;;;;0.90;0.50;;;;;;;13.84;100.00;99800.22;5046722;28;20425;-66
2023/10/14 07:33:44;;;;;;;1.00;0.70;;;;;;;13.80;100.00;99815.34;5048266;28;20482;-69
2023/10/14 07:36:13;;;;;;;1.33;0.67;;;;;;;13.73;100.00;99825.59;5047096;28;21012;-68
2023/10/14 07:38:44;;;;;;;0.90;0.50;;;;;;;13.75;100.00;99839.75;5042262;28;20431;-68
2023/10/14 07:41:15;;;;;;;1.10;0.63;;;;;;;13.71;100.00;99839.41;5053426;28;20413;-67
2023/10/14 07:43:44;;;;;;;1.03;0.73;;;;;;;13.66;100.00;99841.22;5042115;28;20735;-68
2023/10/14 07:46:13;;;;;;;1.27;0.80;;;;;;;13.51;100.00;99835.56;5049643;28;20900;-69
2023/10/14 07:48:43;;;;;;;1.20;0.70;;;;;;;13.68;100.00;99839.09;5043529;28;20437;-69
2023/10/14 07:51:13;;;;;;;1.73;0.80;;;;;;;13.73;100.00;99847.34;5048828;28;20515;-67
2023/10/14 07:53:57;;;;;;;1.20;0.70;;;;;;;13.94;100.00;99865.63;5046862;28;20401;-69
2023/10/14 07:56:26;;;;;;;2.90;0.70;;;;;;;14.14;100.00;99870.50;5043548;28;20424;-70
2023/10/14 07:58:56;;;;;;;1.20;0.77;;;;;;;14.24;100.00;99876.94;5043788;28;20959;-69
2023/10/14 08:01:25;;;;;;;2.07;0.80;;;;;;;14.27;100.00;99876.44;5042128;28;20431;-69
2023/10/14 08:03:57;;;;;;;1.47;0.73;;;;;;;14.25;100.00;99884.03;5045300;28;20477;-69
2023/10/14 08:06:27;;;;;;;1.20;0.70;;;;;;;14.15;100.00;99889.31;5041465;28;20420;-69
2023/10/14 08:08:56;;;;;;;1.83;1.13;;;;;;;14.28;100.00;99894.41;5046458;28;20895;-67
2023/10/14 08:11:25;;;;;;;3.10;1.53;;;;;;;14.36;100.00;99893.19;5048148;28;20428;-69
2023/10/14 08:13:54;;;;;;;2.23;0.93;;;;;;;14.74;99.83;99904.06;5048093;28;20504;-68
2023/10/14 08:16:23;;;;;;;1.00;0.70;;;;;;;14.99;96.87;99911.72;5051507;28;20465;-70
2023/10/14 08:18:53;;;;;;;0.90;0.60;;;;;;;14.98;95.06;99910.06;5056453;28;20445;-69
2023/10/14 08:21:24;;;;;;;4.07;0.87;;;;;;;15.19;95.21;99922.84;5040931;28;20762;-69
2023/10/14 08:23:53;;;;;;;1.57;0.87;;;;;;;15.15;94.24;99932.59;5046708;28;20427;-68
2023/10/14 08:26:26;;;;;;;0.80;0.50;;;;;;;14.79;94.19;99930.53;5050629;28;20805;-70
2023/10/14 08:28:59;;;;;;;2.07;0.70;;;;;;;15.04;92.65;99938.19;5050232;28;20503;-69
2023/10/14 08:31:32;;;;;;;3.27;1.00;;;;;;;15.05;92.90;99943.41;5045823;28;21019;-69
2023/10/14 08:34:02;;;;;;;1.10;0.60;;;;;;;14.98;91.22;99942.75;5045911;28;20428;-69
2023/10/14 08:36:32;;;;;;;1.97;0.90;;;;;;;15.10;91.71;99948.88;5047887;28;21142;-68
2023/10/14 08:39:02;;;;;;;1.00;0.77;;;;;;;15.19;92.00;99950.09;5043702;28;20805;-70
2023/10/14 08:41:34;;;;;;;2.30;0.60;;;;;;;15.04;90.90;99958.09;5050842;28;20428;-70
2023/10/14 08:44:08;;;;;;;0.90;0.60;;;;;;;14.87;92.28;99965.47;5053134;28;20434;-68
2023/10/14 08:46:39;;;;;;;3.83;0.90;;;;;;;14.94;90.45;99970.75;5048386;28;20489;-70
2023/10/14 08:49:12;;;;;;;2.90;0.83;;;;;;;15.04;88.74;99974.44;5052934;28;20809;-70
2023/10/14 08:51:44;;;;;;;7.13;0.80;;;;;;;15.06;86.23;99963.25;5049843;28;20542;-68
2023/10/14 08:54:25;;;;;;;1.13;0.77;;;;;;;15.18;85.13;99970.25;5054918;28;20775;-69
2023/10/14 08:56:54;;;;;;;4.20;0.70;;;;;;;15.22;85.51;99976.84;5052324;28;20760;-70
2023/10/14 08:59:23;;;;;;;2.03;1.43;;;;;;;15.15;85.46;99978.13;5047423;28;20410;-68
2023/10/14 09:01:56;;;;;;;3.43;1.00;;;;;;;15.49;85.27;99981.50;5052860;28;20860;-69
2023/10/14 09:04:29;;;;;;;7.13;0.77;;;;;;;15.78;82.77;99985.63;5046884;28;20429;-68
2023/10/14 09:07:04;;;;;;;1.13;0.67;;;;;;;16.05;78.62;99986.44;5048567;28;20520;-68
2023/10/14 09:09:33;;;;;;;1.20;0.67;;;;;;;15.92;77.73;99992.34;5051250;28;20460;-68
2023/10/14 09:12:10;;;;;;;1.00;0.70;;;;;;;15.57;78.72;100017.34;5045366;28;20883;-68
2023/10/14 09:14:41;;;;;;;2.03;0.70;;;;;;;15.56;78.67;100012.13;5049410;28;20446;-70
2023/10/14 09:17:10;;;;;;;2.83;2.63;;;;;;;15.42;78.89;100013.56;5046853;28;20481;-67
2023/10/14 09:19:45;;;;;;;5.47;0.93;;;;;;;15.31;77.67;100030.88;5044916;28;21253;-68
2023/10/14 09:22:26;;;;;;;1.00;0.70;;;;;;;15.60;76.76;100032.34;5045106;28;20442;-69
2023/10/14 09:24:58;;;;;;;1.57;0.90;;;;;;;15.70;76.82;100032.47;5052290;28;20431;-68
2023/10/14 09:27:30;;;;;;;4.20;1.17;;;;;;;15.87;74.35;100038.66;5043492;28;20768;-69
2023/10/14 09:29:59;;;;;;;1.30;0.70;;;;;;;15.75;72.28;100065.25;5043120;28;20503;-68
2023/10/14 09:32:28;;;;;;;1.30;0.60;;;;;;;15.30;71.79;100053.78;5047910;28;20476;-69
2023/10/14 09:34:58;;;;;;;2.20;0.77;;;;;;;15.36;71.51;100058.22;5048996;28;20830;-68
2023/10/14 09:37:28;;;;;;;1.77;0.60;;;;;;;15.27;72.02;100070.63;5047263;28;20819;-69
2023/10/14 09:40:06;;;;;;;2.33;1.10;;;;;;;15.49;72.05;100071.47;5043024;28;20452;-70
2023/10/14 09:42:36;;;;;;;1.20;0.83;;;;;;;15.43;71.47;100075.22;5050048;28;21018;-69
2023/10/14 09:45:11;;;;;;;2.30;0.70;;;;;;;15.54;69.06;100082.47;5048593;28;20402;-69
2023/10/14 09:47:45;;;;;;;1.57;0.87;;;;;;;15.75;68.49;100076.16;5055228;28;20397;-68
2023/10/14 09:50:16;;;;;;;1.93;1.23;;;;;;;15.65;69.42;100084.22;5048796;28;20467;-68
2023/10/14 09:52:48;;;;;;;2.90;1.43;;;;;;;15.78;69.72;100083.03;5043037;28;20425;-68
2023/10/14 09:55:19;;;;;;;2.27;0.90;;;;;;;16.02;67.51;100079.72;5043588;28;20413;-70
2023/10/14 09:57:49;;;;;;;2.23;1.20;;;;;;;16.32;66.59;100097.47;5043782;28;20466;-68
2023/10/14 10:00:18;;;;;;;4.57;1.03;;;;;;;16.44;64.94;100101.72;5051524;28;20435;-68
2023/10/14 10:02:51;;;;;;;1.67;0.80;;;;;;;16.29;65.72;100095.28;5057062;28;20428;-69
2023/10/14 10:05:26;;;;;;;4.70;1.73;;;;;;;16.58;62.63;100091.19;5049938;28;20847;-67
2023/10/14 10:08:17;;;;;;;1.30;0.83;;;;;;;17.05;60.94;100085.78;5042550;28;20834;-69
2023/10/14 10:10:49;;;;;;;2.53;0.60;;;;;;;17.32;59.37;100097.44;5043065;28;20936;-68
2023/10/14 10:13:19;;;;;;;8.20;0.77;;;;;;;17.68;59.43;100106.66;5039798;28;20487;-67
2023/10/14 10:15:48;;;;;;;1.90;0.60;;;;;;;17.46;58.25;100111.47;5053899;28;20402;-70
2023/10/14 10:18:17;;;;;;;4.03;0.87;;;;;;;16.99;58.57;100110.63;5049150;28;20420;-68
2023/10/14 10:20:55;;;;;;;1.00;0.60;;;;;;;16.36;60.65;100117.75;5055481;28;20932;-68
2023/10/14 10:23:25;;;;;;;2.90;1.20;;;;;;;16.75;62.40;100126.59;5051486;28;20441;-69
2023/10/14 10:25:55;;;;;;;1.40;1.00;;;;;;;16.68;61.27;100126.78;5052431;28;20405;-68
2023/10/14 10:28:46;;;;;;;1.30;0.80;;;;;;;17.19;59.55;100116.22;5052440;28;20474;-67
2023/10/14 10:31:21;;;;;;;1.23;0.67;;;;;;;17.22;58.16;100115.69;5048902;28;20513;-68
2023/10/14 10:33:59;;;;;;;2.77;0.77;;;;;;;16.88;59.27;100121.50;5041589;28;20455;-70
2023/10/14 10:36:30;;;;;;;1.67;1.30;;;;;;;17.04;59.27;100107.94;5045476;28;20412;-67
2023/10/14 10:39:15;;;;;;;2.93;0.80;;;;;;;17.07;58.13;100126.53;5054087;28;20510;-69
2023/10/14 10:41:50;;;;;;;2.17;0.80;;;;;;;17.04;56.70;100133.34;5049911;28;20413;-68
2023/10/14 10:44:20;;;;;;;2.30;0.73;;;;;;;17.06;57.46;100144.84;5051391;28;20401;-70
2023/10/14 10:46:50;;;;;;;2.50;0.70;;;;;;;17.02;57.18;100129.22;5048763;28;20431;-71
2023/10/14 10:49:53;;;;;;;1.47;0.80;;;;;;;17.00;57.45;100145.06;5039044;28;20827;-70
2023/10/14 10:52:24;;;;;;;1.67;1.13;;;;;;;16.79;57.17;100164.06;5046921;28;20495;-69
2023/10/14 10:54:57;;;;;;;7.70;1.80;;;;;;;16.31;57.77;100164.94;5047412;28;20485;-70
2023/10/14 10:57:27;;;;;;;10.80;2.00;;;;;;;16.09;58.08;100162.22;5049587;28;20449;-66
2023/10/14 10:59:56;;;;;;;4.73;1.13;;;;;;;16.14;58.78;100168.81;5050188;28;20824;-67
2023/10/14 11:02:25;;;;;;;2.60;0.67;;;;;;;16.05;58.30;100177.47;5042098;28;20820;-68
2023/10/14 11:04:54;;;;;;;4.00;0.87;;;;;;;16.13;58.86;100183.53;5047189;28;20421;-68
2023/10/14 11:07:24;;;;;;;3.77;1.07;;;;;;;16.50;58.87;100173.59;5054839;28;20431;-68
2023/10/14 11:09:53;;;;;;;1.20;0.73;;;;;;;16.85;57.48;100171.19;5050296;28;20423;-68
2023/10/14 11:12:23;;;;;;;1.00;0.70;;;;;;;16.87;57.23;100179.97;5045311;28;20529;-69
2023/10/14 11:14:52;;;;;;;2.80;0.70;;;;;;;16.43;54.57;100184.72;5046057;28;20413;-67
2023/10/14 11:17:26;;;;;;;1.03;0.53;;;;;;;16.35;54.30;100185.19;5048426;28;20433;-69
2023/10/14 11:19:55;;;;;;;4.20;0.83;;;;;;;16.48;55.17;100182.03;5050563;28;20505;-68
2023/10/14 11:22:24;;;;;;;1.53;0.67;;;;;;;16.74;52.52;100199.53;5048318;28;21012;-69
2023/10/14 11:24:55;;;;;;;4.53;1.50;;;;;;;16.50;52.98;100189.97;5045257;28;20439;-67
2023/10/14 11:27:30;;;;;;;2.03;0.73;;;;;;;16.62;52.44;100184.38;5040271;28;20435;-68
2023/10/14 11:29:59;;;;;;;1.10;0.70;;;;;;;16.81;53.05;100202.03;5050758;28;20576;-68
2023/10/14 11:32:28;;;;;;;1.10;0.50;;;;;;;16.50;51.82;100190.81;5055900;28;20455;-67
2023/10/14 11:34:58;;;;;;;1.53;1.07;;;;;;;16.66;52.70;100189.03;5048143;28;20413;-68
2023/10/14 11:37:29;;;;;;;3.97;1.13;;;;;;;17.14;52.49;100198.19;5047402;28;20420;-66
2023/10/14 11:39:58;;;;;;;3.90;1.00;;;;;;;17.35;51.39;100189.06;5048482;28;20416;-69
2023/10/14 11:42:30;;;;;;;5.07;1.10;;;;;;;17.35;51.00;100191.78;5043775;28;20467;-66
2023/10/14 11:44:59;;;;;;;6.60;1.00;;;;;;;17.24;49.89;100201.00;5042798;28;20398;-69
2023/10/14 11:47:31;;;;;;;1.67;0.87;;;;;;;16.90;49.02;100206.75;5044638;28;20398;-69
2023/10/14 11:50:08;;;;;;;1.00;0.70;;;;;;;16.47;47.90;100215.88;5047252;28;20916;-66
2023/10/14 11:52:39;;;;;;;2.30;0.80;;;;;;;15.97;49.40;100213.41;5044639;28;20485;-69